createdAt,value
2017-05-10T00:00:06.478Z,1008.09
2017-05-10T00:01:06.487Z,1008.08
2017-05-10T00:02:06.499Z,1008.07
2017-05-10T00:03:06.498Z,1008.09
2017-05-10T00:04:06.504Z,1008.05
2017-05-10T00:05:06.511Z,1008.06
2017-05-10T00:06:06.518Z,1008.06
2017-05-10T00:07:06.523Z,1008.05
2017-05-10T00:08:06.529Z,1008.07
2017-05-10T00:09:06.535Z,1008.06
2017-05-10T00:10:06.542Z,1008.05
2017-05-10T00:11:06.549Z,1008.04
2017-05-10T00:12:06.554Z,1008.06
2017-05-10T00:13:06.561Z,1008.01
2017-05-10T00:14:06.567Z,1008.08
2017-05-10T00:15:06.573Z,1008.06
2017-05-10T00:16:06.578Z,1008.08
2017-05-10T00:17:06.584Z,1008.06
2017-05-10T00:18:06.590Z,1008.06
2017-05-10T00:19:06.598Z,1008.02
2017-05-10T00:20:06.603Z,1008.03
2017-05-10T00:21:06.658Z,1007.99
2017-05-10T00:22:06.614Z,1008.01
2017-05-10T00:23:06.621Z,1007.99
2017-05-10T00:24:06.627Z,1008.03
2017-05-10T00:25:06.631Z,1008.03
2017-05-10T00:26:06.639Z,1007.97
2017-05-10T00:27:06.645Z,1007.93
2017-05-10T00:28:06.652Z,1007.97
2017-05-10T00:29:06.657Z,1007.93
2017-05-10T00:30:06.663Z,1007.93
2017-05-10T00:31:06.669Z,1007.86
2017-05-10T00:32:06.673Z,1007.87
2017-05-10T00:33:06.681Z,1007.85
2017-05-10T00:34:06.688Z,1007.84
2017-05-10T00:35:06.694Z,1007.82
2017-05-10T00:36:06.698Z,1007.84
2017-05-10T00:37:06.707Z,1007.83
2017-05-10T00:38:06.770Z,1007.78
2017-05-10T00:39:06.718Z,1007.78
2017-05-10T00:40:06.724Z,1007.79
2017-05-10T00:41:06.731Z,1007.76
2017-05-10T00:42:06.737Z,1007.76
2017-05-10T00:43:06.742Z,1007.72
2017-05-10T00:44:06.746Z,1007.71
2017-05-10T00:45:06.753Z,1007.66
2017-05-10T00:46:06.761Z,1007.66
2017-05-10T00:47:06.764Z,1007.67
2017-05-10T00:48:06.773Z,1007.68
2017-05-10T00:49:06.779Z,1007.69
2017-05-10T00:50:06.782Z,1007.66
2017-05-10T00:51:06.788Z,1007.65
2017-05-10T00:52:06.796Z,1007.64
2017-05-10T00:53:06.802Z,1007.63
2017-05-10T00:54:06.858Z,1007.63
2017-05-10T00:55:06.812Z,1007.63
2017-05-10T00:56:06.821Z,1007.61
2017-05-10T00:57:06.826Z,1007.63
2017-05-10T00:58:06.832Z,1007.58
2017-05-10T00:59:06.888Z,1007.58
2017-05-10T01:00:06.843Z,1007.58
2017-05-10T01:01:06.851Z,1007.55
2017-05-10T01:02:06.856Z,1007.53
2017-05-10T01:03:06.862Z,1007.5
2017-05-10T01:04:06.868Z,1007.47
2017-05-10T01:05:06.872Z,1007.45
2017-05-10T01:06:06.878Z,1007.43
2017-05-10T01:07:06.887Z,1007.41
2017-05-10T01:08:06.892Z,1007.39
2017-05-10T01:09:06.897Z,1007.36
2017-05-10T01:10:06.905Z,1007.35
2017-05-10T01:11:06.909Z,1007.36
2017-05-10T01:12:06.917Z,1007.34
2017-05-10T01:13:06.922Z,1007.31
2017-05-10T01:14:06.929Z,1007.29
2017-05-10T01:15:06.983Z,1007.29
2017-05-10T01:16:06.940Z,1007.28
2017-05-10T01:17:06.946Z,1007.26
2017-05-10T01:18:06.952Z,1007.25
2017-05-10T01:19:06.957Z,1007.21
2017-05-10T01:20:06.962Z,1007.23
2017-05-10T01:21:06.970Z,1007.21
2017-05-10T01:22:06.975Z,1007.21
2017-05-10T01:23:06.983Z,1007.2
2017-05-10T01:24:06.989Z,1007.17
2017-05-10T01:25:07.046Z,1007.17
2017-05-10T01:26:07.000Z,1007.18
2017-05-10T01:27:07.005Z,1007.17
2017-05-10T01:28:07.011Z,1007.14
2017-05-10T01:29:07.018Z,1007.13
2017-05-10T01:30:07.073Z,1007.1
2017-05-10T01:31:07.030Z,1007.11
2017-05-10T01:32:07.085Z,1007.07
2017-05-10T01:33:07.041Z,1007.08
2017-05-10T01:34:07.049Z,1007.08
2017-05-10T01:35:07.054Z,1007.07
2017-05-10T01:36:07.059Z,1007.06
2017-05-10T01:37:07.067Z,1007.05
2017-05-10T01:38:07.071Z,1007.02
2017-05-10T01:39:07.078Z,1006.99
2017-05-10T01:41:07.092Z,1006.95
2017-05-10T01:42:07.094Z,1006.93
2017-05-10T01:43:07.101Z,1006.95
2017-05-10T01:44:07.157Z,1006.92
2017-05-10T01:46:07.122Z,1006.9
2017-05-10T01:47:07.127Z,1006.93
2017-05-10T01:48:07.132Z,1006.85
2017-05-10T01:49:07.137Z,1006.86
2017-05-10T01:50:07.144Z,1006.83
2017-05-10T01:51:07.150Z,1006.82
2017-05-10T01:52:07.157Z,1006.79
2017-05-10T01:53:07.162Z,1006.8
2017-05-10T01:54:07.168Z,1006.75
2017-05-10T01:55:07.175Z,1006.75
2017-05-10T01:56:07.179Z,1006.76
2017-05-10T01:57:07.185Z,1006.75
2017-05-10T01:58:07.192Z,1006.72
2017-05-10T01:59:07.198Z,1006.73
2017-05-10T02:00:07.203Z,1006.7
2017-05-10T02:01:07.210Z,1006.71
2017-05-10T02:02:07.215Z,1006.64
2017-05-10T02:03:07.221Z,1006.63
2017-05-10T02:04:07.228Z,1006.64
2017-05-10T02:05:07.234Z,1006.63
2017-05-10T02:06:07.240Z,1006.61
2017-05-10T02:07:07.295Z,1006.6
2017-05-10T02:08:07.250Z,1006.6
2017-05-10T02:09:07.258Z,1006.6
2017-05-10T02:10:07.263Z,1006.58
2017-05-10T02:11:07.269Z,1006.59
2017-05-10T02:12:07.275Z,1006.59
2017-05-10T02:13:07.282Z,1006.56
2017-05-10T02:14:07.286Z,1006.55
2017-05-10T02:15:07.298Z,1006.54
2017-05-10T02:16:07.298Z,1006.54
2017-05-10T02:17:07.306Z,1006.54
2017-05-10T02:18:07.310Z,1006.53
2017-05-10T02:19:07.317Z,1006.47
2017-05-10T02:20:07.322Z,1006.5
2017-05-10T02:21:07.329Z,1006.48
2017-05-10T02:22:07.334Z,1006.46
2017-05-10T02:23:07.390Z,1006.45
2017-05-10T02:24:07.346Z,1006.44
2017-05-10T02:25:07.353Z,1006.42
2017-05-10T02:26:07.357Z,1006.44
2017-05-10T02:27:07.363Z,1006.42
2017-05-10T02:28:07.371Z,1006.41
2017-05-10T02:29:07.375Z,1006.43
2017-05-10T02:30:07.431Z,1006.38
2017-05-10T02:31:07.387Z,1006.41
2017-05-10T02:32:07.444Z,1006.4
2017-05-10T02:33:07.400Z,1006.41
2017-05-10T02:34:07.405Z,1006.43
2017-05-10T02:35:07.412Z,1006.38
2017-05-10T02:36:07.418Z,1006.4
2017-05-10T02:37:07.424Z,1006.36
2017-05-10T02:38:07.430Z,1006.38
2017-05-10T02:39:07.436Z,1006.39
2017-05-10T02:40:07.441Z,1006.34
2017-05-10T02:41:07.447Z,1006.38
2017-05-10T02:42:07.468Z,1006.33
2017-05-10T02:43:07.459Z,1006.33
2017-05-10T02:44:07.464Z,1006.32
2017-05-10T02:45:07.470Z,1006.31
2017-05-10T02:46:07.475Z,1006.29
2017-05-10T02:47:07.483Z,1006.26
2017-05-10T02:48:07.538Z,1006.26
2017-05-10T02:49:07.496Z,1006.25
2017-05-10T02:50:07.500Z,1006.28
2017-05-10T02:51:07.506Z,1006.25
2017-05-10T02:52:07.511Z,1006.26
2017-05-10T02:53:07.518Z,1006.26
2017-05-10T02:54:07.524Z,1006.2
2017-05-10T02:55:07.529Z,1006.19
2017-05-10T02:56:07.533Z,1006.19
2017-05-10T02:57:07.542Z,1006.17
2017-05-10T02:58:07.547Z,1006.19
2017-05-10T02:59:07.553Z,1006.15
2017-05-10T03:00:07.558Z,1006.15
2017-05-10T03:01:07.565Z,1006.15
2017-05-10T03:02:07.621Z,1006.11
2017-05-10T03:03:07.576Z,1006.11
2017-05-10T03:04:07.583Z,1006.11
2017-05-10T03:05:07.590Z,1006.07
2017-05-10T03:06:07.643Z,1006.06
2017-05-10T03:07:07.601Z,1006.02
2017-05-10T03:08:07.606Z,1006.02
2017-05-10T03:09:07.613Z,1006.02
2017-05-10T03:10:07.618Z,1006.01
2017-05-10T03:11:07.629Z,1006.01
2017-05-10T03:12:07.631Z,1006.01
2017-05-10T03:13:07.636Z,1006.01
2017-05-10T03:14:07.642Z,1005.97
2017-05-10T03:15:07.647Z,1005.98
2017-05-10T03:16:07.705Z,1005.96
2017-05-10T03:17:07.711Z,1005.94
2017-05-10T03:18:07.665Z,1005.91
2017-05-10T03:19:07.671Z,1005.92
2017-05-10T03:20:07.679Z,1005.92
2017-05-10T03:21:07.734Z,1005.92
2017-05-10T03:22:07.691Z,1005.9
2017-05-10T03:23:07.696Z,1005.92
2017-05-10T03:24:07.701Z,1005.89
2017-05-10T03:25:07.707Z,1005.87
2017-05-10T03:26:07.714Z,1005.84
2017-05-10T03:27:07.720Z,1005.86
2017-05-10T03:28:07.723Z,1005.83
2017-05-10T03:29:07.731Z,1005.81
2017-05-10T03:30:07.738Z,1005.8
2017-05-10T03:31:07.741Z,1005.77
2017-05-10T03:32:07.755Z,1005.79
2017-05-10T03:33:07.754Z,1005.76
2017-05-10T03:34:07.761Z,1005.77
2017-05-10T03:35:07.766Z,1005.76
2017-05-10T03:36:07.772Z,1005.78
2017-05-10T03:37:07.778Z,1005.77
2017-05-10T03:38:07.786Z,1005.72
2017-05-10T03:39:07.790Z,1005.75
2017-05-10T03:40:07.799Z,1005.7
2017-05-10T03:41:07.802Z,1005.77
2017-05-10T03:42:07.807Z,1005.76
2017-05-10T03:43:07.815Z,1005.73
2017-05-10T03:44:07.820Z,1005.74
2017-05-10T03:45:07.826Z,1005.78
2017-05-10T03:46:07.831Z,1005.77
2017-05-10T03:47:07.841Z,1005.77
2017-05-10T03:48:07.843Z,1005.79
2017-05-10T03:49:07.899Z,1005.78
2017-05-10T03:50:07.854Z,1005.75
2017-05-10T03:51:07.859Z,1005.78
2017-05-10T03:52:07.868Z,1005.75
2017-05-10T03:53:07.873Z,1005.76
2017-05-10T03:54:07.879Z,1005.76
2017-05-10T03:55:07.885Z,1005.72
2017-05-10T03:56:07.891Z,1005.77
2017-05-10T03:57:07.895Z,1005.78
2017-05-10T03:58:07.902Z,1005.75
2017-05-10T03:59:07.906Z,1005.75
2017-05-10T04:00:07.914Z,1005.71
2017-05-10T04:01:07.920Z,1005.73
2017-05-10T04:02:07.925Z,1005.72
2017-05-10T04:03:07.931Z,1005.77
2017-05-10T04:04:07.986Z,1005.74
2017-05-10T04:05:07.942Z,1005.69
2017-05-10T04:06:07.949Z,1005.71
2017-05-10T04:07:07.954Z,1005.7
2017-05-10T04:08:07.961Z,1005.71
2017-05-10T04:09:07.969Z,1005.7
2017-05-10T04:10:07.972Z,1005.67
2017-05-10T04:11:07.979Z,1005.71
2017-05-10T04:12:07.984Z,1005.71
2017-05-10T04:13:07.994Z,1005.7
2017-05-10T04:14:07.997Z,1005.67
2017-05-10T04:15:08.002Z,1005.68
2017-05-10T04:16:08.008Z,1005.63
2017-05-10T04:17:08.013Z,1005.68
2017-05-10T04:18:08.020Z,1005.65
2017-05-10T04:19:08.025Z,1005.66
2017-05-10T04:20:08.031Z,1005.63
2017-05-10T04:21:08.038Z,1005.69
2017-05-10T04:22:08.093Z,1005.71
2017-05-10T04:23:08.349Z,1005.68
2017-05-10T04:24:08.057Z,1005.65
2017-05-10T04:25:08.094Z,1005.7
2017-05-10T04:26:08.069Z,1005.72
2017-05-10T04:27:08.074Z,1005.72
2017-05-10T04:28:08.080Z,1005.71
2017-05-10T04:29:08.086Z,1005.73
2017-05-10T04:30:08.089Z,1005.69
2017-05-10T04:31:08.097Z,1005.71
2017-05-10T04:32:08.102Z,1005.75
2017-05-10T04:33:08.108Z,1005.77
2017-05-10T04:34:08.114Z,1005.8
2017-05-10T04:35:08.120Z,1005.79
2017-05-10T04:36:08.127Z,1005.84
2017-05-10T04:37:08.133Z,1005.82
2017-05-10T04:38:08.138Z,1005.8
2017-05-10T04:39:08.145Z,1005.8
2017-05-10T04:40:08.201Z,1005.81
2017-05-10T04:41:08.155Z,1005.79
2017-05-10T04:42:08.162Z,1005.76
2017-05-10T04:43:08.169Z,1005.84
2017-05-10T04:44:08.176Z,1005.84
2017-05-10T04:45:08.181Z,1005.85
2017-05-10T04:46:08.188Z,1005.86
2017-05-10T04:47:08.194Z,1005.92
2017-05-10T04:48:08.198Z,1005.94
2017-05-10T04:49:08.206Z,1005.99
2017-05-10T04:50:08.212Z,1006.01
2017-05-10T04:51:08.218Z,1005.96
2017-05-10T04:52:08.225Z,1006
2017-05-10T04:53:08.232Z,1006.03
2017-05-10T04:54:08.238Z,1006.05
2017-05-10T04:55:08.244Z,1006.05
2017-05-10T04:56:08.251Z,1006.05
2017-05-10T04:57:08.257Z,1006.07
2017-05-10T04:58:08.264Z,1006.05
2017-05-10T04:59:08.321Z,1006.1
2017-05-10T05:00:08.277Z,1006.03
2017-05-10T05:01:08.284Z,1005.99
2017-05-10T05:02:08.291Z,1006
2017-05-10T05:03:08.297Z,1005.99
2017-05-10T05:04:08.305Z,1006
2017-05-10T05:05:08.314Z,1006.11
2017-05-10T05:06:08.317Z,1006.13
2017-05-10T05:07:08.323Z,1006.1
2017-05-10T05:08:08.331Z,1006.24
2017-05-10T05:09:08.338Z,1006.14
2017-05-10T05:10:08.344Z,1006.09
2017-05-10T05:11:08.351Z,1006.11
2017-05-10T05:12:08.409Z,1006.13
2017-05-10T05:13:08.365Z,1006.2
2017-05-10T05:14:08.371Z,1006.2
2017-05-10T05:15:08.379Z,1006.32
2017-05-10T05:16:08.386Z,1006.34
2017-05-10T05:17:08.392Z,1006.33
2017-05-10T05:18:08.401Z,1006.33
2017-05-10T05:19:08.408Z,1006.32
2017-05-10T05:20:08.419Z,1006.35
2017-05-10T05:21:08.424Z,1006.34
2017-05-10T05:22:08.429Z,1006.34
2017-05-10T05:23:08.438Z,1006.33
2017-05-10T05:24:08.446Z,1006.36
2017-05-10T05:25:08.451Z,1006.37
2017-05-10T05:26:08.459Z,1006.37
2017-05-10T05:27:08.469Z,1006.39
2017-05-10T05:28:08.476Z,1006.41
2017-05-10T05:29:08.481Z,1006.22
2017-05-10T05:30:08.519Z,1006.17
2017-05-10T05:31:08.500Z,1006.42
2017-05-10T05:32:08.506Z,1006.42
2017-05-10T05:33:08.514Z,1006.45
2017-05-10T05:34:08.571Z,1006.43
2017-05-10T05:35:08.531Z,1006.45
2017-05-10T05:36:08.537Z,1006.41
2017-05-10T05:37:08.594Z,1006.41
2017-05-10T05:38:08.553Z,1006.42
2017-05-10T05:39:08.558Z,1006.31
2017-05-10T05:40:08.570Z,1006.19
2017-05-10T05:41:08.576Z,1006.42
2017-05-10T05:42:08.586Z,1006.37
2017-05-10T05:43:08.592Z,1006.41
2017-05-10T05:44:08.599Z,1006.37
2017-05-10T05:45:08.609Z,1006.28
2017-05-10T05:46:08.666Z,1006.21
2017-05-10T05:47:08.624Z,1006.29
2017-05-10T05:48:08.633Z,1006.19
2017-05-10T05:49:08.639Z,1006.13
2017-05-10T05:50:08.647Z,1006.24
2017-05-10T05:51:08.656Z,1006.23
2017-05-10T05:52:08.663Z,1006.18
2017-05-10T05:53:08.672Z,1006.24
2017-05-10T05:54:08.680Z,1006.27
2017-05-10T05:55:08.688Z,1006.27
2017-05-10T05:56:08.695Z,1006.21
2017-05-10T05:57:08.703Z,1006.3
2017-05-10T05:58:08.711Z,1006.27
2017-05-10T05:59:08.771Z,1006.27
2017-05-10T06:00:08.728Z,1006.28
2017-05-10T06:01:08.735Z,1006.31
2017-05-10T06:02:08.794Z,1006.33
2017-05-10T06:03:08.806Z,1006.42
2017-05-10T06:04:08.762Z,1006.4
2017-05-10T06:05:08.768Z,1006.43
2017-05-10T06:06:08.827Z,1006.42
2017-05-10T06:07:08.836Z,1006.22
2017-05-10T06:08:08.794Z,1006.47
2017-05-10T06:09:08.803Z,1006.51
2017-05-10T06:10:08.811Z,1006.49
2017-05-10T06:11:08.821Z,1006.49
2017-05-10T06:12:08.829Z,1006.46
2017-05-10T06:13:08.839Z,1006.52
2017-05-10T06:14:08.847Z,1006.48
2017-05-10T06:15:08.857Z,1006.47
2017-05-10T06:16:08.864Z,1006.49
2017-05-10T06:17:08.875Z,1006.5
2017-05-10T06:18:08.882Z,1006.53
2017-05-10T06:19:08.891Z,1006.52
2017-05-10T06:20:08.902Z,1006.52
2017-05-10T06:21:08.910Z,1006.55
2017-05-10T06:22:08.921Z,1006.58
2017-05-10T06:23:08.928Z,1006.56
2017-05-10T06:24:08.938Z,1006.53
2017-05-10T06:25:08.949Z,1006.6
2017-05-10T06:26:08.957Z,1006.56
2017-05-10T06:27:09.016Z,1006.57
2017-05-10T06:28:08.975Z,1006.62
2017-05-10T06:29:08.987Z,1006.61
2017-05-10T06:30:08.997Z,1006.59
2017-05-10T06:31:09.007Z,1006.58
2017-05-10T06:32:09.017Z,1006.53
2017-05-10T06:33:09.027Z,1006.52
2017-05-10T06:34:09.087Z,1006.51
2017-05-10T06:35:09.047Z,1006.55
2017-05-10T06:36:09.055Z,1006.59
2017-05-10T06:37:09.066Z,1006.6
2017-05-10T06:38:09.077Z,1006.58
2017-05-10T06:39:09.085Z,1006.58
2017-05-10T06:40:09.096Z,1006.56
2017-05-10T06:41:09.105Z,1006.53
2017-05-10T06:42:09.113Z,1006.56
2017-05-10T06:43:09.126Z,1006.62
2017-05-10T06:44:09.137Z,1006.68
2017-05-10T06:45:09.145Z,1006.64
2017-05-10T06:46:09.154Z,1006.58
2017-05-10T06:47:09.166Z,1006.58
2017-05-10T06:48:09.175Z,1006.59
2017-05-10T06:49:09.185Z,1006.64
2017-05-10T06:50:09.197Z,1006.68
2017-05-10T06:51:09.258Z,1006.64
2017-05-10T06:52:09.216Z,1006.65
2017-05-10T06:53:09.226Z,1006.69
2017-05-10T06:54:09.238Z,1006.72
2017-05-10T06:55:09.248Z,1006.71
2017-05-10T06:56:09.258Z,1006.73
2017-05-10T06:57:09.268Z,1006.74
2017-05-10T06:58:09.276Z,1006.81
2017-05-10T06:59:09.290Z,1006.81
2017-05-10T07:00:09.349Z,1006.85
2017-05-10T07:01:09.310Z,1006.8
2017-05-10T07:02:09.322Z,1006.73
2017-05-10T07:03:09.331Z,1006.83
2017-05-10T07:04:09.340Z,1007.02
2017-05-10T07:05:09.652Z,1007.03
2017-05-10T07:06:09.667Z,1007.02
2017-05-10T07:07:09.374Z,1007.06
2017-05-10T07:08:09.405Z,1007.08
2017-05-10T07:09:09.396Z,1007.03
2017-05-10T07:10:09.407Z,1006.98
2017-05-10T07:11:09.717Z,1006.99
2017-05-10T07:12:09.428Z,1006.95
2017-05-10T07:13:09.440Z,1006.95
2017-05-10T07:14:09.449Z,1006.9
2017-05-10T07:15:09.459Z,1006.82
2017-05-10T07:16:09.471Z,1006.74
2017-05-10T07:17:09.533Z,1006.75
2017-05-10T07:18:09.491Z,1006.74
2017-05-10T07:19:09.503Z,1006.73
2017-05-10T07:20:09.516Z,1006.71
2017-05-10T07:21:09.576Z,1006.75
2017-05-10T07:22:09.536Z,1006.67
2017-05-10T07:23:09.548Z,1006.21
2017-05-10T07:24:09.560Z,1005.64
2017-05-10T07:25:09.570Z,1005.31
2017-05-10T07:26:09.580Z,1005.25
2017-05-10T07:27:09.591Z,1005.28
2017-05-10T07:28:09.600Z,1005.29
2017-05-10T07:29:09.659Z,1005.25
2017-05-10T07:30:09.619Z,1005.27
2017-05-10T07:31:09.628Z,1005.28
2017-05-10T07:32:09.637Z,1005.26
2017-05-10T07:33:09.645Z,1005.27
2017-05-10T07:34:09.654Z,1005.29
2017-05-10T07:35:09.718Z,1005.29
2017-05-10T07:36:09.669Z,1005.28
2017-05-10T07:37:09.679Z,1005.29
2017-05-10T07:38:09.689Z,1005.25
2017-05-10T07:39:09.745Z,1005.24
2017-05-10T07:40:09.704Z,1005.23
2017-05-10T07:41:09.712Z,1005.23
2017-05-10T07:42:09.721Z,1005.23
2017-05-10T07:43:09.728Z,1005.19
2017-05-10T07:44:09.736Z,1005.2
2017-05-10T07:45:09.744Z,1005.16
2017-05-10T07:46:09.751Z,1005.17
2017-05-10T07:47:09.758Z,1005.18
2017-05-10T07:48:09.767Z,1005.19
2017-05-10T07:49:09.774Z,1005.16
2017-05-10T07:50:09.786Z,1005.15
2017-05-10T07:51:09.828Z,1005.18
2017-05-10T07:52:09.798Z,1005.2
2017-05-10T07:53:09.808Z,1005.19
2017-05-10T07:54:09.814Z,1005.14
2017-05-10T07:55:09.821Z,1005.15
2017-05-10T07:56:09.829Z,1005.2
2017-05-10T07:57:09.834Z,1005.18
2017-05-10T07:58:09.845Z,1005.15
2017-05-10T07:59:09.851Z,1005.12
2017-05-10T08:00:09.857Z,1005.16
2017-05-10T08:01:09.866Z,1005.16
2017-05-10T08:02:09.873Z,1005.14
2017-05-10T08:03:09.882Z,1005.14
2017-05-10T08:04:09.938Z,1005.12
2017-05-10T08:05:09.897Z,1005.1
2017-05-10T08:06:09.905Z,1005.14
2017-05-10T08:07:09.948Z,1005.1
2017-05-10T08:08:09.920Z,1005.07
2017-05-10T08:09:09.926Z,1005.03
2017-05-10T08:10:09.934Z,1005.05
2017-05-10T08:11:09.942Z,1005.06
2017-05-10T08:12:09.951Z,1005.05
2017-05-10T08:13:09.957Z,1005.03
2017-05-10T08:14:09.964Z,1005.05
2017-05-10T08:15:09.972Z,1005.02
2017-05-10T08:16:09.978Z,1005.03
2017-05-10T08:17:09.986Z,1005
2017-05-10T08:18:09.993Z,1004.98
2017-05-10T08:19:10.002Z,1004.98
2017-05-10T08:20:10.008Z,1004.94
2017-05-10T08:21:10.016Z,1004.94
2017-05-10T08:22:10.024Z,1004.91
2017-05-10T08:23:10.032Z,1004.91
2017-05-10T08:24:10.039Z,1004.88
2017-05-10T08:25:10.044Z,1004.91
2017-05-10T08:26:10.101Z,1004.9
2017-05-10T08:27:10.059Z,1004.87
2017-05-10T08:28:10.068Z,1004.91
2017-05-10T08:29:10.075Z,1004.86
2017-05-10T08:30:10.083Z,1004.88
2017-05-10T08:31:10.088Z,1004.89
2017-05-10T08:32:10.097Z,1004.88
2017-05-10T08:33:10.104Z,1004.89
2017-05-10T08:34:10.114Z,1004.88
2017-05-10T08:35:10.120Z,1004.89
2017-05-10T08:36:10.126Z,1004.89
2017-05-10T08:37:10.134Z,1004.89
2017-05-10T08:38:10.140Z,1004.91
2017-05-10T08:39:10.197Z,1004.88
2017-05-10T08:40:10.205Z,1004.85
2017-05-10T08:41:10.163Z,1004.87
2017-05-10T08:42:10.169Z,1004.84
2017-05-10T08:43:10.178Z,1004.84
2017-05-10T08:44:10.184Z,1004.8
2017-05-10T08:45:10.192Z,1004.79
2017-05-10T08:46:10.199Z,1004.8
2017-05-10T08:47:10.207Z,1004.78
2017-05-10T08:48:10.214Z,1004.75
2017-05-10T08:49:10.222Z,1004.77
2017-05-10T08:50:10.228Z,1004.75
2017-05-10T08:51:10.236Z,1004.71
2017-05-10T08:52:10.242Z,1004.73
2017-05-10T08:53:10.251Z,1004.74
2017-05-10T08:54:10.257Z,1004.74
2017-05-10T08:55:10.266Z,1004.76
2017-05-10T08:56:10.323Z,1004.73
2017-05-10T08:57:10.281Z,1004.75
2017-05-10T08:58:10.288Z,1004.71
2017-05-10T08:59:10.294Z,1004.73
2017-05-10T09:00:10.300Z,1004.71
2017-05-10T09:01:10.309Z,1004.68
2017-05-10T09:02:10.315Z,1004.68
2017-05-10T09:03:10.324Z,1004.72
2017-05-10T09:04:10.331Z,1004.64
2017-05-10T09:05:10.339Z,1004.67
2017-05-10T09:06:10.346Z,1004.64
2017-05-10T09:07:10.355Z,1004.63
2017-05-10T09:08:10.361Z,1004.57
2017-05-10T09:09:10.368Z,1004.6
2017-05-10T09:10:10.377Z,1004.6
2017-05-10T09:11:10.383Z,1004.56
2017-05-10T09:12:10.390Z,1004.58
2017-05-10T09:13:10.397Z,1004.62
2017-05-10T09:14:10.405Z,1004.49
2017-05-10T09:15:10.413Z,1004.5
2017-05-10T09:16:10.420Z,1004.49
2017-05-10T09:17:10.427Z,1004.51
2017-05-10T09:18:10.437Z,1004.46
2017-05-10T09:19:10.441Z,1004.46
2017-05-10T09:20:10.449Z,1004.47
2017-05-10T09:21:10.460Z,1004.45
2017-05-10T09:22:10.469Z,1004.46
2017-05-10T09:23:10.471Z,1004.45
2017-05-10T09:24:10.481Z,1004.47
2017-05-10T09:25:10.487Z,1004.39
2017-05-10T09:26:10.494Z,1004.42
2017-05-10T09:27:10.501Z,1004.42
2017-05-10T09:28:10.509Z,1004.4
2017-05-10T09:29:10.517Z,1004.38
2017-05-10T09:30:10.524Z,1004.42
2017-05-10T09:31:10.532Z,1004.45
2017-05-10T09:32:10.590Z,1004.41
2017-05-10T09:33:10.547Z,1004.4
2017-05-10T09:34:10.554Z,1004.37
2017-05-10T09:35:10.562Z,1004.37
2017-05-10T09:36:10.570Z,1004.35
2017-05-10T09:37:10.577Z,1004.32
2017-05-10T09:38:10.584Z,1004.31
2017-05-10T09:39:10.590Z,1004.25
2017-05-10T09:40:10.600Z,1004.27
2017-05-10T09:41:10.609Z,1004.23
2017-05-10T09:42:10.615Z,1004.23
2017-05-10T09:43:10.623Z,1004.2
2017-05-10T09:44:10.681Z,1004.24
2017-05-10T09:45:10.637Z,1004.21
2017-05-10T09:46:10.695Z,1004.22
2017-05-10T09:47:10.652Z,1004.23
2017-05-10T09:48:10.660Z,1004.18
2017-05-10T09:49:10.667Z,1004.19
2017-05-10T09:50:10.674Z,1004.18
2017-05-10T09:51:10.733Z,1004.17
2017-05-10T09:52:10.690Z,1004.2
2017-05-10T09:53:10.748Z,1004.26
2017-05-10T09:54:10.706Z,1004.23
2017-05-10T09:55:10.711Z,1004.21
2017-05-10T09:56:10.719Z,1004.23
2017-05-10T09:57:10.777Z,1004.2
2017-05-10T09:58:10.734Z,1004.14
2017-05-10T09:59:10.741Z,1004.07
2017-05-10T10:00:10.749Z,1004.1
2017-05-10T10:01:10.808Z,1004.12
2017-05-10T10:02:10.813Z,1004.13
2017-05-10T10:03:10.771Z,1004.15
2017-05-10T10:04:10.780Z,1004.11
2017-05-10T10:05:10.787Z,1004.04
2017-05-10T10:06:10.794Z,1004.05
2017-05-10T10:07:10.802Z,1004.07
2017-05-10T10:08:10.860Z,1004.1
2017-05-10T10:09:10.819Z,1004.07
2017-05-10T10:10:10.823Z,1004.04
2017-05-10T10:11:10.831Z,1003.99
2017-05-10T10:12:10.841Z,1004.01
2017-05-10T10:13:10.845Z,1004
2017-05-10T10:14:10.853Z,1004.02
2017-05-10T10:15:10.862Z,1004.04
2017-05-10T10:16:10.870Z,1003.99
2017-05-10T10:17:10.876Z,1003.99
2017-05-10T10:18:10.884Z,1004.01
2017-05-10T10:19:10.890Z,1003.96
2017-05-10T10:20:10.899Z,1003.97
2017-05-10T10:21:10.905Z,1003.96
2017-05-10T10:22:10.914Z,1003.94
2017-05-10T10:23:10.921Z,1003.93
2017-05-10T10:24:10.928Z,1003.9
2017-05-10T10:25:10.937Z,1003.9
2017-05-10T10:26:10.993Z,1003.9
2017-05-10T10:27:10.950Z,1003.91
2017-05-10T10:28:10.959Z,1003.85
2017-05-10T10:29:10.965Z,1003.88
2017-05-10T10:30:10.973Z,1003.87
2017-05-10T10:31:11.032Z,1003.86
2017-05-10T10:32:10.987Z,1003.86
2017-05-10T10:33:10.995Z,1003.85
2017-05-10T10:34:11.003Z,1003.81
2017-05-10T10:35:11.011Z,1003.79
2017-05-10T10:36:11.018Z,1003.76
2017-05-10T10:37:11.025Z,1003.75
2017-05-10T10:38:11.034Z,1003.73
2017-05-10T10:39:11.041Z,1003.7
2017-05-10T10:40:11.048Z,1003.68
2017-05-10T10:41:11.106Z,1003.63
2017-05-10T10:42:11.065Z,1003.62
2017-05-10T10:43:11.070Z,1003.63
2017-05-10T10:44:11.077Z,1003.58
2017-05-10T10:45:11.086Z,1003.61
2017-05-10T10:46:11.093Z,1003.62
2017-05-10T10:47:11.100Z,1003.53
2017-05-10T10:48:11.107Z,1003.52
2017-05-10T10:49:11.116Z,1003.51
2017-05-10T10:50:11.123Z,1003.5
2017-05-10T10:51:11.131Z,1003.43
2017-05-10T10:52:11.138Z,1003.4
2017-05-10T10:53:11.144Z,1003.33
2017-05-10T10:54:11.152Z,1003.38
2017-05-10T10:55:11.209Z,1003.37
2017-05-10T10:56:11.169Z,1003.35
2017-05-10T10:57:11.174Z,1003.37
2017-05-10T10:58:11.182Z,1003.35
2017-05-10T10:59:11.190Z,1003.37
2017-05-10T11:00:11.221Z,1003.32
2017-05-10T11:01:11.205Z,1003.33
2017-05-10T11:02:11.212Z,1003.35
2017-05-10T11:03:11.219Z,1003.32
2017-05-10T11:04:11.226Z,1003.28
2017-05-10T11:05:11.235Z,1003.27
2017-05-10T11:06:11.242Z,1003.28
2017-05-10T11:07:11.249Z,1003.32
2017-05-10T11:08:11.256Z,1003.25
2017-05-10T11:09:11.264Z,1003.24
2017-05-10T11:10:11.272Z,1003.25
2017-05-10T11:11:11.279Z,1003.2
2017-05-10T11:12:11.286Z,1003.21
2017-05-10T11:13:11.343Z,1003.17
2017-05-10T11:14:11.301Z,1003.19
2017-05-10T11:15:11.361Z,1003.17
2017-05-10T11:16:11.316Z,1003.16
2017-05-10T11:17:11.337Z,1003.15
2017-05-10T11:18:11.332Z,1003.12
2017-05-10T11:19:11.338Z,1003.11
2017-05-10T11:20:11.396Z,1003.11
2017-05-10T11:21:11.404Z,1003.1
2017-05-10T11:22:11.362Z,1003.13
2017-05-10T11:23:11.417Z,1003.09
2017-05-10T11:24:11.376Z,1003.1
2017-05-10T11:25:11.383Z,1003.12
2017-05-10T11:26:11.389Z,1003.05
2017-05-10T11:27:11.398Z,1003.1
2017-05-10T11:28:11.456Z,1003.06
2017-05-10T11:29:11.464Z,1003.08
2017-05-10T11:30:11.419Z,1003.08
2017-05-10T11:31:11.428Z,1003.01
2017-05-10T11:32:11.485Z,1003.01
2017-05-10T11:33:11.444Z,1003.04
2017-05-10T11:34:11.500Z,1003.02
2017-05-10T11:35:11.458Z,1003.02
2017-05-10T11:36:11.465Z,1003.02
2017-05-10T11:37:11.472Z,1002.99
2017-05-10T11:38:11.485Z,1003
2017-05-10T11:39:11.488Z,1002.97
2017-05-10T11:40:11.496Z,1002.97
2017-05-10T11:41:11.502Z,1002.94
2017-05-10T11:42:11.509Z,1002.97
2017-05-10T11:43:11.518Z,1002.99
2017-05-10T11:44:11.526Z,1002.97
2017-05-10T11:45:11.531Z,1002.97
2017-05-10T11:46:11.541Z,1002.94
2017-05-10T11:47:11.546Z,1002.97
2017-05-10T11:48:11.553Z,1002.93
2017-05-10T11:49:11.612Z,1002.96
2017-05-10T11:50:11.569Z,1002.97
2017-05-10T11:51:11.576Z,1002.94
2017-05-10T11:52:11.582Z,1002.9
2017-05-10T11:53:11.591Z,1002.92
2017-05-10T11:54:11.599Z,1002.92
2017-05-10T11:55:11.607Z,1002.94
2017-05-10T11:56:11.613Z,1002.93
2017-05-10T11:57:11.620Z,1002.91
2017-05-10T11:58:11.628Z,1002.9
2017-05-10T11:59:11.635Z,1002.93
2017-05-10T12:00:11.644Z,1002.92
2017-05-10T12:01:11.651Z,1002.91
2017-05-10T12:02:11.658Z,1002.91
2017-05-10T12:03:11.666Z,1002.94
2017-05-10T12:04:11.672Z,1002.95
2017-05-10T12:05:11.680Z,1002.96
2017-05-10T12:06:11.738Z,1002.94
2017-05-10T12:07:11.693Z,1002.93
2017-05-10T12:08:11.703Z,1002.92
2017-05-10T12:09:11.709Z,1002.92
2017-05-10T12:10:11.717Z,1002.91